KBFW

Silver Bay Municipal Airport

Silver Bay, Minnesota, USA
METAR KBFW 210402Z AUTO 00000KT 10SM BKN070 17/17 A2996 RMK AO2
Observed Flight Rules
Jul-21 @ 04:02 UTC (21 minutes ago) Visual Flight Rules
Visibility Clouds
10 miles
  • Broken at 7,000' AGL
Temperatures Readings
Current 17°C / 63°F
Dewpoint 17°C / 63°F
Humidity 100%
Altimeter 29.96" Hg
Pressure 1015 hPa
Elevation 331
METAR KBFW 210402Z AUTO 00000KT 10SM BKN070 17/17 A2996 RMK AO2
Observed Flight Rules
Jul-21 @ 04:02 UTC
(21 minutes ago)
VFR
Clouds
  • Broken at 7,000' AGL
Temperature Dewpoint
17°C / 63°F 17°C / 63°F
Humidity Altimeter Pressure
100% 29.96" Hg 1015 hPa